Time;durP1;ratioP1;P1;durP2;ratioP2;P2;SDS_P1;SDS_P2;PMS_P1;PMS_P2;Temp;Humidity;BMP_temperature;BMP_pressure;BME280_temperature;BME280_humidity;BME280_pressure;Samples;Min_cycle;Max_cycle;Signal;HPM_P1;HPM_P2
2022/02/19 00:00:48;;;;;;;4.55;2.33;;;10.30;73.40;;;;;;4823039;29;20558;-78
2022/02/19 00:03:13;;;;;;;3.70;1.55;;;10.30;73.40;;;;;;4823232;29;20059;-78
2022/02/19 00:05:40;;;;;;;2.85;1.70;;;10.30;73.40;;;;;;4808584;29;20031;-79
2022/02/19 00:08:06;;;;;;;3.83;1.65;;;10.30;73.40;;;;;;4807901;29;20479;-77
2022/02/19 00:10:32;;;;;;;3.38;1.70;;;10.30;73.40;;;;;;4823275;29;20067;-78
2022/02/19 00:12:58;;;;;;;3.50;1.52;;;10.30;73.40;;;;;;4823197;29;20520;-78
2022/02/19 00:15:25;;;;;;;5.22;1.58;;;10.20;73.40;;;;;;4807903;29;20054;-77
2022/02/19 00:17:52;;;;;;;4.72;1.88;;;10.20;73.40;;;;;;4822875;29;20043;-78
2022/02/19 00:20:18;;;;;;;4.43;1.52;;;10.20;73.40;;;;;;4810899;29;20064;-78
2022/02/19 00:22:43;;;;;;;4.35;1.67;;;10.20;73.40;;;;;;4810738;29;20069;-78
2022/02/19 00:25:09;;;;;;;3.22;1.60;;;10.20;73.30;;;;;;4811047;29;20045;-78
2022/02/19 00:27:36;;;;;;;3.63;1.55;;;10.20;73.40;;;;;;4810955;29;20030;-77
2022/02/19 00:30:04;;;;;;;3.53;1.60;;;10.20;73.40;;;;;;4826108;29;20104;-77
2022/02/19 00:32:30;;;;;;;3.75;1.58;;;10.20;73.40;;;;;;4826060;29;20037;-80
2022/02/19 00:34:57;;;;;;;5.43;1.88;;;10.20;73.40;;;;;;4810490;29;20033;-77
2022/02/19 00:37:23;;;;;;;2.58;1.50;;;10.20;73.30;;;;;;4795482;29;20034;-79
2022/02/19 00:39:48;;;;;;;5.20;1.90;;;10.20;73.40;;;;;;4810277;29;20045;-78
2022/02/19 00:42:14;;;;;;;2.97;1.75;;;10.10;73.40;;;;;;4826289;29;20121;-79
2022/02/19 00:44:40;;;;;;;3.90;1.50;;;10.10;73.40;;;;;;4813799;29;20407;-78
2022/02/19 00:47:07;;;;;;;3.42;1.27;;;10.10;73.40;;;;;;4814570;29;20471;-78
2022/02/19 00:49:33;;;;;;;5.30;1.77;;;10.10;73.40;;;;;;4829321;29;20143;-77
2022/02/19 00:51:59;;;;;;;2.38;1.30;;;10.10;73.40;;;;;;4829069;29;20058;-77
2022/02/19 00:54:25;;;;;;;3.42;1.40;;;10.20;73.60;;;;;;4829022;29;20033;-78
2022/02/19 00:56:51;;;;;;;2.35;1.40;;;10.10;73.40;;;;;;4813996;29;20027;-78
2022/02/19 00:59:17;;;;;;;2.85;1.30;;;10.10;73.50;;;;;;4828970;29;20104;-77
2022/02/19 01:01:45;;;;;;;5.18;1.80;;;10.10;73.60;;;;;;4829233;29;20030;-77
2022/02/19 01:04:24;;;;;;;2.90;1.45;;;10.10;73.60;;;;;;4815499;29;20444;-77
2022/02/19 01:06:50;;;;;;;4.30;1.55;;;10.10;73.60;;;;;;4813809;29;20034;-79
2022/02/19 01:09:16;;;;;;;3.22;1.60;;;10.10;73.70;;;;;;4813908;29;20039;-77
2022/02/19 01:11:43;;;;;;;4.68;1.67;;;10.10;73.70;;;;;;4813930;29;20132;-78
2022/02/19 01:14:09;;;;;;;4.28;1.63;;;10.10;73.70;;;;;;4828764;29;20524;-77
2022/02/19 01:16:36;;;;;;;3.72;1.88;;;10.00;73.70;;;;;;4813627;29;20066;-77
2022/02/19 01:19:03;;;;;;;2.55;1.50;;;10.00;73.70;;;;;;4813274;29;20097;-77
2022/02/19 01:21:29;;;;;;;2.65;1.20;;;10.00;73.80;;;;;;4828501;29;20051;-77
2022/02/19 01:23:55;;;;;;;3.40;1.55;;;10.00;73.80;;;;;;4828551;29;20050;-77
2022/02/19 01:26:20;;;;;;;3.72;1.60;;;10.00;73.80;;;;;;4828667;29;20061;-78
2022/02/19 01:28:50;;;;;;;2.42;1.50;;;10.00;73.80;;;;;;4814059;29;20049;-80
2022/02/19 01:31:17;;;;;;;4.15;1.60;;;10.00;73.80;;;;;;4813160;29;20106;-77
2022/02/19 01:33:43;;;;;;;2.72;1.42;;;10.00;73.80;;;;;;4783396;29;20073;-78
2022/02/19 01:36:11;;;;;;;3.88;1.60;;;9.90;73.70;;;;;;4813295;29;20091;-77
2022/02/19 01:38:39;;;;;;;3.22;1.70;;;10.00;73.80;;;;;;4813693;29;20041;-77
2022/02/19 01:41:05;;;;;;;4.13;1.77;;;9.90;73.70;;;;;;4813816;29;20041;-77
2022/02/19 01:43:32;;;;;;;4.90;1.42;;;9.90;73.80;;;;;;4828498;29;20037;-78
2022/02/19 01:45:59;;;;;;;4.07;1.63;;;10.00;73.80;;;;;;4828545;29;20037;-77
2022/02/19 01:48:26;;;;;;;5.63;1.80;;;9.90;73.70;;;;;;4828114;29;20030;-78
2022/02/19 01:50:53;;;;;;;4.03;1.40;;;9.90;73.70;;;;;;4812933;29;20102;-82
2022/02/19 01:53:22;;;;;;;3.83;1.50;;;9.90;73.70;;;;;;4813311;29;20030;-77
2022/02/19 01:55:56;;;;;;;3.00;1.45;;;9.90;73.70;;;;;;4827772;29;20041;-81
2022/02/19 01:58:41;;;;;;;5.00;1.77;;;9.90;73.60;;;;;;4845070;29;20569;-78
2022/02/19 02:01:30;;;;;;;3.22;1.42;;;9.90;73.70;;;;;;4815990;29;20038;-78
2022/02/19 02:03:56;;;;;;;2.47;1.40;;;9.90;73.70;;;;;;4844353;29;20559;-77
2022/02/19 02:06:27;;;;;;;4.53;1.80;;;9.90;73.70;;;;;;4814320;29;20026;-77
2022/02/19 02:08:58;;;;;;;4.15;1.27;;;9.90;73.70;;;;;;4827764;29;20038;-79
2022/02/19 02:11:27;;;;;;;2.40;1.30;;;9.80;73.70;;;;;;4828129;29;20041;-81
2022/02/19 02:13:57;;;;;;;2.75;1.40;;;9.80;73.70;;;;;;4813937;29;20478;-77
2022/02/19 02:16:39;;;;;;;3.28;1.45;;;9.80;73.60;;;;;;4827553;29;20109;-79
2022/02/19 02:19:11;;;;;;;3.50;1.25;;;9.80;73.70;;;;;;4813099;29;20069;-78
2022/02/19 02:21:51;;;;;;;2.58;1.38;;;9.80;73.70;;;;;;4814537;29;20045;-80
2022/02/19 02:24:18;;;;;;;3.75;1.73;;;9.80;73.70;;;;;;4827622;29;20125;-78
2022/02/19 02:26:45;;;;;;;3.72;1.65;;;9.80;73.70;;;;;;4812351;29;20067;-80
2022/02/19 02:29:11;;;;;;;2.35;1.40;;;9.80;73.70;;;;;;4828197;29;20049;-78
2022/02/19 02:31:37;;;;;;;3.20;1.40;;;9.80;73.70;;;;;;4812609;29;20087;-78
2022/02/19 02:34:03;;;;;;;2.60;1.35;;;9.80;73.70;;;;;;4797233;29;20095;-77
2022/02/19 02:36:29;;;;;;;2.70;1.40;;;9.80;73.70;;;;;;4812467;29;20034;-77
2022/02/19 02:38:57;;;;;;;2.00;1.30;;;9.80;73.70;;;;;;4812871;29;20137;-77
2022/02/19 02:41:25;;;;;;;4.68;1.48;;;9.80;74.30;;;;;;4798417;29;20130;-77
2022/02/19 02:43:53;;;;;;;3.95;1.38;;;9.80;73.60;;;;;;4812562;29;20491;-78
2022/02/19 02:46:19;;;;;;;1.30;1.10;;;9.70;73.60;;;;;;4827410;29;20041;-78
2022/02/19 02:48:45;;;;;;;2.60;1.48;;;9.80;73.60;;;;;;4812389;29;20037;-77
2022/02/19 02:51:13;;;;;;;2.88;1.48;;;9.80;73.60;;;;;;4812254;29;20034;-78
2022/02/19 02:53:39;;;;;;;2.20;1.20;;;9.70;73.60;;;;;;4812122;29;20497;-78
2022/02/19 02:56:05;;;;;;;2.80;1.35;;;9.70;73.60;;;;;;4812100;29;20421;-79
2022/02/19 02:58:31;;;;;;;3.72;1.60;;;9.70;73.60;;;;;;4796971;29;20042;-76
2022/02/19 03:00:59;;;;;;;3.50;1.50;;;9.70;73.60;;;;;;4826979;29;20442;-78
2022/02/19 03:03:25;;;;;;;3.17;1.40;;;9.70;73.60;;;;;;4811948;29;20042;-80
2022/02/19 03:05:51;;;;;;;2.08;1.40;;;9.70;73.60;;;;;;4826258;29;20511;-78
2022/02/19 03:08:17;;;;;;;2.85;1.40;;;9.70;73.60;;;;;;4797427;29;20448;-79
2022/02/19 03:10:43;;;;;;;2.25;1.30;;;9.70;73.60;;;;;;4811965;29;20034;-77
2022/02/19 03:13:09;;;;;;;4.55;1.85;;;9.70;73.60;;;;;;4811763;29;20049;-77
2022/02/19 03:15:35;;;;;;;2.38;1.38;;;9.70;73.60;;;;;;4811640;29;20044;-79
2022/02/19 03:18:00;;;;;;;3.45;1.55;;;9.70;73.60;;;;;;4811411;29;20045;-77
2022/02/19 03:20:27;;;;;;;3.38;1.23;;;9.70;73.60;;;;;;4811770;29;20137;-78
2022/02/19 03:22:53;;;;;;;3.40;1.20;;;9.70;73.60;;;;;;4811314;29;20038;-77
2022/02/19 03:25:21;;;;;;;4.03;1.38;;;9.70;73.60;;;;;;4827072;29;20417;-78
2022/02/19 03:27:48;;;;;;;4.75;1.58;;;9.70;73.60;;;;;;4811531;29;20069;-78
2022/02/19 03:30:25;;;;;;;1.95;1.35;;;9.60;73.60;;;;;;4813113;29;20582;-78
2022/02/19 03:32:54;;;;;;;3.63;1.55;;;9.60;73.60;;;;;;4811443;29;20029;-78
2022/02/19 03:35:21;;;;;;;4.40;1.35;;;9.60;73.60;;;;;;4826477;29;20037;-78
2022/02/19 03:37:48;;;;;;;2.67;1.13;;;9.60;73.60;;;;;;4811234;29;20120;-77
2022/02/19 03:40:19;;;;;;;4.28;1.38;;;9.60;73.60;;;;;;4827258;29;20045;-77
2022/02/19 03:42:46;;;;;;;4.07;1.50;;;9.70;73.70;;;;;;4811529;29;20037;-78
2022/02/19 03:45:13;;;;;;;4.18;1.50;;;9.60;73.60;;;;;;4811119;29;20034;-78
2022/02/19 03:47:44;;;;;;;1.90;1.20;;;9.60;73.60;;;;;;4842821;29;20034;-77
2022/02/19 03:50:16;;;;;;;4.60;1.77;;;9.60;73.60;;;;;;4797877;29;20038;-78
2022/02/19 03:52:42;;;;;;;3.88;1.65;;;9.60;73.60;;;;;;4811756;29;20106;-79
2022/02/19 03:55:18;;;;;;;;;;;9.60;73.60;;;;;;4827073;29;20468;-78
2022/02/19 03:57:45;;;;;;;2.38;1.20;;;9.60;73.70;;;;;;4796908;29;20270;-78
2022/02/19 04:00:12;;;;;;;2.67;1.30;;;9.60;73.60;;;;;;4811047;29;20041;-80
2022/02/19 04:02:43;;;;;;;3.28;1.30;;;9.60;73.80;;;;;;4826554;29;20054;-77
2022/02/19 04:05:13;;;;;;;7.22;1.60;;;9.50;73.80;;;;;;4826526;29;20086;-78
2022/02/19 04:07:42;;;;;;;4.55;2.08;;;9.50;73.80;;;;;;4797508;29;20038;-79
2022/02/19 04:10:15;;;;;;;4.22;1.48;;;9.50;73.80;;;;;;4812673;29;20062;-77
2022/02/19 04:12:42;;;;;;;3.17;1.42;;;9.50;73.80;;;;;;4811050;29;20030;-80
2022/02/19 04:15:13;;;;;;;4.78;1.80;;;9.50;73.80;;;;;;4812125;29;20037;-80
2022/02/19 04:17:43;;;;;;;4.30;1.60;;;9.50;73.80;;;;;;4813059;29;20089;-77
2022/02/19 04:20:11;;;;;;;3.95;1.40;;;9.50;73.70;;;;;;4814697;29;20125;-77
2022/02/19 04:22:41;;;;;;;2.97;1.50;;;9.50;73.70;;;;;;4785343;29;20034;-77
2022/02/19 04:25:09;;;;;;;4.05;1.50;;;9.50;73.70;;;;;;4815038;29;20088;-77
2022/02/19 04:27:35;;;;;;;4.25;1.60;;;9.50;73.70;;;;;;4829541;29;20494;-80
2022/02/19 04:30:02;;;;;;;3.40;1.48;;;9.50;73.70;;;;;;4814367;29;20041;-79
2022/02/19 04:32:28;;;;;;;3.65;1.60;;;9.50;73.70;;;;;;4814509;29;20049;-77
2022/02/19 04:34:57;;;;;;;2.75;1.48;;;9.50;73.70;;;;;;4800216;29;20121;-78
2022/02/19 04:37:24;;;;;;;3.47;1.50;;;9.50;73.70;;;;;;4829518;29;20049;-78
2022/02/19 04:39:52;;;;;;;3.33;1.58;;;9.50;73.70;;;;;;4814556;29;20073;-76
2022/02/19 04:42:25;;;;;;;4.57;1.60;;;9.50;73.70;;;;;;4814864;29;20044;-78
2022/02/19 04:44:51;;;;;;;3.13;1.48;;;9.50;73.60;;;;;;4814661;29;20109;-78
2022/02/19 04:47:16;;;;;;;3.47;1.38;;;9.50;73.80;;;;;;4784171;29;20036;-77
2022/02/19 04:49:44;;;;;;;2.72;1.30;;;9.50;73.70;;;;;;4814119;29;20038;-78
2022/02/19 04:52:10;;;;;;;2.53;1.30;;;9.50;73.60;;;;;;4784070;29;20131;-80
2022/02/19 04:54:38;;;;;;;3.60;1.67;;;9.50;73.60;;;;;;4799930;29;20140;-79
2022/02/19 04:57:04;;;;;;;4.25;1.50;;;9.50;73.60;;;;;;4813943;29;20032;-81
2022/02/19 04:59:33;;;;;;;3.47;1.40;;;9.50;74.30;;;;;;4784482;29;20094;-78
2022/02/19 05:01:59;;;;;;;4.80;1.80;;;9.40;73.60;;;;;;4814067;29;20022;-78
2022/02/19 05:04:33;;;;;;;2.95;1.58;;;9.50;73.60;;;;;;4814896;29;20129;-79
2022/02/19 05:07:03;;;;;;;4.63;1.92;;;9.50;73.60;;;;;;4800037;29;20086;-77
2022/02/19 05:09:29;;;;;;;6.10;1.60;;;9.40;73.60;;;;;;4814654;29;20095;-78
2022/02/19 05:12:01;;;;;;;3.75;1.60;;;9.50;73.60;;;;;;4814828;29;20034;-78
2022/02/19 05:14:30;;;;;;;4.00;1.55;;;9.40;73.60;;;;;;4814098;29;20093;-79
2022/02/19 05:17:01;;;;;;;3.20;1.42;;;9.40;73.60;;;;;;4814782;29;20034;-77
2022/02/19 05:19:33;;;;;;;3.65;1.42;;;9.40;73.60;;;;;;4828823;29;20130;-77
2022/02/19 05:21:59;;;;;;;3.42;1.30;;;9.40;73.60;;;;;;4798679;29;20145;-79
2022/02/19 05:24:26;;;;;;;3.53;1.60;;;9.40;73.60;;;;;;4813938;29;20037;-79
2022/02/19 05:27:01;;;;;;;2.85;1.27;;;9.40;73.60;;;;;;4828971;29;20094;-81
2022/02/19 05:29:27;;;;;;;3.05;1.40;;;9.40;73.60;;;;;;4827806;29;20125;-77
2022/02/19 05:31:54;;;;;;;4.40;1.63;;;9.40;73.60;;;;;;4813864;29;20083;-77
2022/02/19 05:34:35;;;;;;;3.13;1.50;;;9.40;73.60;;;;;;4815552;29;20034;-79
2022/02/19 05:37:04;;;;;;;3.53;1.60;;;9.40;73.60;;;;;;4813917;29;20045;-80
2022/02/19 05:39:34;;;;;;;4.78;1.55;;;9.40;73.60;;;;;;4813758;29;20030;-78
2022/02/19 05:42:06;;;;;;;4.25;1.52;;;9.40;73.60;;;;;;4800119;29;20049;-82
2022/02/19 05:44:32;;;;;;;3.20;1.38;;;9.40;73.60;;;;;;4813385;29;20034;-79
2022/02/19 05:47:03;;;;;;;3.08;1.55;;;9.40;73.60;;;;;;4828446;29;20034;-77
2022/02/19 05:49:29;;;;;;;3.20;1.67;;;9.40;73.60;;;;;;4828154;29;20121;-82
2022/02/19 05:52:05;;;;;;;3.08;1.30;;;9.40;73.70;;;;;;4828872;29;20030;-78
2022/02/19 05:54:35;;;;;;;3.17;1.35;;;9.40;73.60;;;;;;4813282;29;20057;-77
2022/02/19 05:57:22;;;;;;;3.78;1.90;;;9.30;74.20;;;;;;4828241;29;20106;-79
2022/02/19 05:59:50;;;;;;;2.90;1.60;;;9.30;73.60;;;;;;4827730;29;20030;-77
2022/02/19 06:02:17;;;;;;;5.00;1.75;;;9.30;73.70;;;;;;4812983;29;20046;-78
2022/02/19 06:04:43;;;;;;;2.88;1.35;;;9.30;73.70;;;;;;4828382;29;20508;-77
2022/02/19 06:07:10;;;;;;;3.08;1.40;;;9.30;73.70;;;;;;4813167;29;20022;-80
2022/02/19 06:09:36;;;;;;;3.15;1.33;;;9.30;73.70;;;;;;4812952;29;20070;-78
2022/02/19 06:12:04;;;;;;;3.95;1.17;;;9.30;73.70;;;;;;4812920;29;20034;-77
2022/02/19 06:14:51;;;;;;;3.35;1.55;;;9.30;73.70;;;;;;4815507;29;20054;-80
2022/02/19 06:17:20;;;;;;;2.28;1.20;;;9.30;73.60;;;;;;4813158;29;20152;-77
2022/02/19 06:19:46;;;;;;;5.05;1.90;;;9.30;74.30;;;;;;4812512;29;20089;-78
2022/02/19 06:22:14;;;;;;;3.15;1.48;;;9.30;73.70;;;;;;4813251;29;20130;-79
2022/02/19 06:24:40;;;;;;;2.63;1.50;;;9.30;73.70;;;;;;4812552;29;20124;-78
2022/02/19 06:27:07;;;;;;;4.43;1.50;;;9.20;73.70;;;;;;4797958;29;20049;-77
2022/02/19 06:29:47;;;;;;;5.75;1.50;;;9.30;73.80;;;;;;4814944;29;20038;-79
2022/02/19 06:32:15;;;;;;;2.47;1.55;;;9.30;73.80;;;;;;4827366;29;20069;-77
2022/02/19 06:34:45;;;;;;;3.25;1.42;;;9.20;73.70;;;;;;4812777;29;20085;-79
2022/02/19 06:37:18;;;;;;;4.40;1.88;;;9.20;73.80;;;;;;4812828;29;20041;-77
2022/02/19 06:39:46;;;;;;;3.50;1.52;;;9.20;73.80;;;;;;4827140;29;20056;-78
2022/02/19 06:42:13;;;;;;;2.22;1.30;;;9.20;73.80;;;;;;4812302;29;20475;-78
2022/02/19 06:44:52;;;;;;;3.63;1.60;;;9.20;73.80;;;;;;4814239;29;20503;-83
2022/02/19 06:47:18;;;;;;;3.53;1.40;;;9.20;73.80;;;;;;4827135;29;20029;-77
2022/02/19 06:49:44;;;;;;;3.42;1.40;;;9.20;73.80;;;;;;4812187;29;20061;-79
2022/02/19 06:52:11;;;;;;;3.13;1.50;;;9.20;73.90;;;;;;4812095;29;20030;-79
2022/02/19 06:54:38;;;;;;;2.80;1.30;;;9.20;73.90;;;;;;4812031;29;20083;-78
2022/02/19 06:57:04;;;;;;;3.75;1.60;;;9.20;73.90;;;;;;4827232;29;20045;-78
2022/02/19 06:59:31;;;;;;;2.83;1.40;;;9.20;73.90;;;;;;4812267;29;20376;-76
2022/02/19 07:01:56;;;;;;;2.90;1.45;;;9.20;73.90;;;;;;4811890;29;20034;-76
2022/02/19 07:04:24;;;;;;;4.85;1.50;;;9.20;74.00;;;;;;4812402;29;20063;-80
2022/02/19 07:06:53;;;;;;;4.93;1.50;;;9.20;74.00;;;;;;4827316;29;20069;-78
2022/02/19 07:09:19;;;;;;;2.03;1.40;;;9.20;74.00;;;;;;4796705;29;20032;-76
2022/02/19 07:11:46;;;;;;;3.80;1.52;;;9.20;74.00;;;;;;4812040;29;20527;-76
2022/02/19 07:14:13;;;;;;;1.73;1.30;;;9.20;74.00;;;;;;4811611;29;20037;-76
2022/02/19 07:16:39;;;;;;;4.07;1.65;;;9.10;74.00;;;;;;4811632;29;20034;-76
2022/02/19 07:19:06;;;;;;;4.13;1.73;;;9.10;74.00;;;;;;4811336;29;20140;-77
2022/02/19 07:21:32;;;;;;;3.15;1.30;;;9.10;74.00;;;;;;4811728;29;20208;-77
2022/02/19 07:23:58;;;;;;;2.97;1.38;;;9.10;74.10;;;;;;4781612;29;20125;-76
2022/02/19 07:26:30;;;;;;;3.40;1.40;;;9.10;74.10;;;;;;4827204;29;20062;-76
2022/02/19 07:29:02;;;;;;;2.47;1.38;;;9.10;74.10;;;;;;4812392;29;20042;-75
2022/02/19 07:31:34;;;;;;;2.00;1.20;;;9.10;74.10;;;;;;4812019;29;20045;-76
2022/02/19 07:34:00;;;;;;;2.90;1.60;;;9.10;74.10;;;;;;4811971;29;20090;-75
2022/02/19 07:36:31;;;;;;;3.10;1.30;;;9.10;74.10;;;;;;4812372;29;20045;-75
2022/02/19 07:38:57;;;;;;;2.78;1.27;;;9.10;74.10;;;;;;4826494;29;20128;-76
2022/02/19 07:41:25;;;;;;;3.20;1.30;;;9.10;74.10;;;;;;4826418;29;20137;-75
2022/02/19 07:44:11;;;;;;;2.35;1.40;;;9.10;74.20;;;;;;4809774;29;20476;-76
2022/02/19 07:46:57;;;;;;;3.17;1.35;;;9.10;74.20;;;;;;4801200;29;20472;-75
2022/02/19 07:58:18;;;;;;;3.47;1.45;;;9.10;74.30;;;;;;4826468;29;20042;-76
2022/02/19 08:00:47;;;;;;;3.65;1.60;;;9.10;74.30;;;;;;4826386;29;20491;-75
2022/02/19 08:03:16;;;;;;;3.95;1.40;;;9.00;74.30;;;;;;4811120;29;20030;-76
2022/02/19 08:05:44;;;;;;;3.15;1.50;;;9.10;74.50;;;;;;4811468;29;20042;-75
2022/02/19 08:08:10;;;;;;;1.38;1.00;;;9.10;74.50;;;;;;4795480;29;20041;-77
2022/02/19 08:10:37;;;;;;;4.20;1.60;;;9.10;74.50;;;;;;4810923;29;20441;-74
2022/02/19 08:13:08;;;;;;;2.53;1.38;;;9.10;74.50;;;;;;4811257;29;20034;-75
2022/02/19 08:15:35;;;;;;;5.20;1.70;;;9.10;74.60;;;;;;4782240;29;20030;-75
2022/02/19 08:18:05;;;;;;;3.25;1.30;;;9.10;74.60;;;;;;4811028;29;20034;-79
2022/02/19 08:20:32;;;;;;;1.75;1.30;;;9.10;74.60;;;;;;4796395;29;20098;-78
2022/02/19 08:22:59;;;;;;;3.58;1.58;;;9.10;74.60;;;;;;4826032;29;20034;-76
2022/02/19 08:25:26;;;;;;;2.25;1.10;;;9.10;74.60;;;;;;4826256;29;20037;-76
2022/02/19 08:27:52;;;;;;;2.35;1.40;;;9.10;74.60;;;;;;4810559;29;20065;-78
2022/02/19 08:30:18;;;;;;;3.05;1.50;;;9.10;74.60;;;;;;4825595;29;20037;-75
2022/02/19 08:32:43;;;;;;;3.65;1.83;;;9.10;74.60;;;;;;4825985;29;20109;-75
2022/02/19 08:35:09;;;;;;;1.90;1.27;;;9.10;74.60;;;;;;4796033;29;20045;-75
2022/02/19 08:37:35;;;;;;;3.92;1.40;;;9.10;74.80;;;;;;4810840;29;20097;-75
2022/02/19 08:40:02;;;;;;;3.97;1.65;;;9.10;74.70;;;;;;4841906;29;20069;-76
2022/02/19 08:42:28;;;;;;;2.83;1.30;;;9.10;74.70;;;;;;4825780;29;20022;-76
2022/02/19 08:44:54;;;;;;;3.05;1.42;;;9.10;74.70;;;;;;4825918;29;20040;-75
2022/02/19 08:47:20;;;;;;;2.97;1.38;;;9.10;74.70;;;;;;4811292;29;20146;-75
2022/02/19 08:49:46;;;;;;;2.90;1.63;;;9.10;74.70;;;;;;4825942;29;20155;-77
2022/02/19 08:52:12;;;;;;;2.20;1.52;;;9.10;74.70;;;;;;4825563;29;20087;-77
2022/02/19 08:54:38;;;;;;;2.78;1.27;;;9.20;74.80;;;;;;4810480;29;20037;-77
2022/02/19 08:57:05;;;;;;;2.45;1.27;;;9.10;74.80;;;;;;4782060;29;20477;-77
2022/02/19 08:59:31;;;;;;;4.65;1.50;;;9.10;74.70;;;;;;4825645;29;20042;-77
2022/02/19 09:01:58;;;;;;;3.38;1.52;;;9.10;74.70;;;;;;4811236;29;20109;-77
2022/02/19 09:04:24;;;;;;;2.58;1.50;;;9.20;74.80;;;;;;4827636;29;20041;-75
2022/02/19 09:06:50;;;;;;;3.15;1.40;;;9.20;74.80;;;;;;4828816;29;20033;-76
2022/02/19 09:09:16;;;;;;;2.70;1.40;;;9.20;74.80;;;;;;4813830;29;20034;-79
2022/02/19 09:11:41;;;;;;;2.92;1.45;;;9.20;74.80;;;;;;4845598;29;20034;-76
2022/02/19 09:14:07;;;;;;;3.88;1.80;;;9.20;74.80;;;;;;4813782;29;20041;-77
2022/02/19 09:16:37;;;;;;;2.55;1.40;;;9.20;74.80;;;;;;4814063;29;20037;-77
2022/02/19 09:19:07;;;;;;;1.70;1.25;;;9.20;74.80;;;;;;4829290;29;20064;-75
2022/02/19 09:21:33;;;;;;;2.30;1.20;;;9.20;74.80;;;;;;4813418;29;20093;-78
2022/02/19 09:24:01;;;;;;;3.65;1.55;;;9.20;74.80;;;;;;4813635;29;20030;-76
2022/02/19 09:26:27;;;;;;;3.10;1.80;;;9.20;74.80;;;;;;4813508;29;20034;-78
2022/02/19 09:28:52;;;;;;;2.60;1.35;;;9.20;74.80;;;;;;4814046;29;20029;-75
2022/02/19 09:31:22;;;;;;;2.97;1.27;;;9.30;74.90;;;;;;4829468;29;20498;-78
2022/02/19 09:33:48;;;;;;;2.40;1.30;;;9.30;74.90;;;;;;4814181;29;20037;-76
2022/02/19 09:36:14;;;;;;;3.28;1.50;;;9.30;74.90;;;;;;4813516;29;20081;-77
2022/02/19 09:38:41;;;;;;;2.10;1.30;;;9.30;74.90;;;;;;4814773;29;20377;-76
2022/02/19 09:41:10;;;;;;;3.25;1.35;;;9.30;74.90;;;;;;4829542;29;20038;-76
2022/02/19 09:43:36;;;;;;;3.42;1.40;;;9.30;74.90;;;;;;4846857;29;20022;-78
2022/02/19 09:46:03;;;;;;;2.65;1.38;;;9.40;74.90;;;;;;4816693;29;20120;-76
2022/02/19 09:48:30;;;;;;;3.15;1.70;;;9.40;74.90;;;;;;4829362;29;20472;-79
2022/02/19 09:50:57;;;;;;;2.83;1.40;;;9.40;74.80;;;;;;4828794;29;20082;-78
2022/02/19 09:53:27;;;;;;;2.17;1.30;;;9.40;74.80;;;;;;4829004;29;20022;-75
2022/02/19 09:55:53;;;;;;;5.20;1.67;;;9.40;74.80;;;;;;4829045;29;20174;-76
2022/02/19 09:58:19;;;;;;;2.97;1.35;;;9.40;74.80;;;;;;4846025;29;20078;-80
2022/02/19 10:00:46;;;;;;;2.20;1.38;;;9.50;74.80;;;;;;4814954;29;20041;-77
2022/02/19 10:03:21;;;;;;;3.30;1.38;;;9.50;74.80;;;;;;4814633;29;20065;-77
2022/02/19 10:05:47;;;;;;;2.08;1.20;;;9.50;74.80;;;;;;4814260;29;20078;-77
2022/02/19 10:08:13;;;;;;;4.10;1.48;;;9.50;74.80;;;;;;4814323;29;20121;-76
2022/02/19 10:10:59;;;;;;;3.35;1.50;;;9.50;74.80;;;;;;4845754;29;20062;-78
2022/02/19 10:13:35;;;;;;;2.42;1.42;;;9.50;74.90;;;;;;4829321;29;20029;-77
2022/02/19 10:16:03;;;;;;;2.55;1.50;;;9.60;74.80;;;;;;4827875;29;20086;-77
2022/02/19 10:18:34;;;;;;;3.50;1.60;;;9.60;74.80;;;;;;4798000;29;20136;-76
2022/02/19 10:21:13;;;;;;;1.67;1.17;;;9.60;74.80;;;;;;4828288;29;20046;-80
2022/02/19 10:23:41;;;;;;;3.22;1.20;;;9.60;74.80;;;;;;4828670;29;20030;-76
2022/02/19 10:26:08;;;;;;;3.65;1.50;;;9.60;74.80;;;;;;4828796;29;20026;-77
2022/02/19 10:28:35;;;;;;;3.28;1.50;;;9.60;74.80;;;;;;4828170;29;20551;-77
2022/02/19 10:31:20;;;;;;;3.63;2.25;;;9.60;74.70;;;;;;4812949;29;20037;-79
2022/02/19 10:33:46;;;;;;;2.53;1.40;;;9.70;74.90;;;;;;4812352;29;20050;-77
2022/02/19 10:36:18;;;;;;;2.88;1.42;;;9.70;74.80;;;;;;4812905;29;20049;-76
2022/02/19 10:38:56;;;;;;;4.30;1.40;;;9.70;74.80;;;;;;4827679;29;20451;-78
2022/02/19 10:41:36;;;;;;;2.25;1.50;;;9.80;74.80;;;;;;4827103;29;20030;-77
2022/02/19 10:44:21;;;;;;;3.75;1.35;;;9.80;74.80;;;;;;4812113;29;20069;-77
2022/02/19 10:46:48;;;;;;;3.97;1.25;;;9.80;74.80;;;;;;4827615;29;20045;-77
2022/02/19 10:49:13;;;;;;;2.78;1.30;;;9.90;74.80;;;;;;4812135;29;20026;-79
2022/02/19 10:51:43;;;;;;;4.13;1.55;;;9.90;74.80;;;;;;4812816;29;20190;-77
2022/02/19 10:54:11;;;;;;;4.22;1.38;;;9.90;74.80;;;;;;4827169;29;20178;-77
2022/02/19 10:56:37;;;;;;;2.22;1.30;;;9.90;74.80;;;;;;4812646;29;20038;-75
2022/02/19 10:59:04;;;;;;;3.95;1.48;;;10.00;74.80;;;;;;4812079;29;20500;-76
2022/02/19 11:01:45;;;;;;;2.03;1.20;;;10.00;74.70;;;;;;4827463;29;20046;-76
2022/02/19 11:04:15;;;;;;;3.25;1.92;;;10.00;74.80;;;;;;4827410;29;20065;-76
2022/02/19 11:06:41;;;;;;;3.20;1.30;;;10.00;74.70;;;;;;4827019;29;20038;-77
2022/02/19 11:09:08;;;;;;;2.53;1.30;;;10.10;74.70;;;;;;4827008;29;20516;-77
2022/02/19 11:11:42;;;;;;;2.40;1.30;;;10.10;74.70;;;;;;4826996;29;20168;-77
2022/02/19 11:14:10;;;;;;;1.65;1.02;;;10.20;74.80;;;;;;4842966;29;20034;-76
2022/02/19 11:16:37;;;;;;;2.83;1.30;;;10.20;74.70;;;;;;4811940;29;20030;-76
2022/02/19 11:19:04;;;;;;;4.22;1.40;;;10.30;74.70;;;;;;4826526;29;20057;-77
2022/02/19 11:21:32;;;;;;;4.28;1.23;;;10.30;74.70;;;;;;4826718;29;20434;-77
2022/02/19 11:24:04;;;;;;;4.05;1.50;;;10.30;74.70;;;;;;4826835;29;20408;-77
2022/02/19 11:26:31;;;;;;;2.13;1.30;;;10.30;74.70;;;;;;4842551;29;20038;-78
2022/02/19 11:29:17;;;;;;;4.40;1.60;;;10.40;74.70;;;;;;4811465;29;20034;-77
2022/02/19 11:31:45;;;;;;;4.63;1.40;;;10.40;74.70;;;;;;4827135;29;20091;-78
2022/02/19 11:34:12;;;;;;;2.20;1.30;;;10.40;74.60;;;;;;4826654;29;20468;-77
2022/02/19 11:36:38;;;;;;;3.03;1.23;;;10.50;74.70;;;;;;4811246;29;20042;-79
2022/02/19 11:39:06;;;;;;;2.38;1.50;;;10.50;74.70;;;;;;4842875;29;20433;-77
2022/02/19 11:41:36;;;;;;;2.78;1.20;;;10.50;74.70;;;;;;4811301;29;20046;-76
2022/02/19 11:44:03;;;;;;;1.63;1.02;;;10.60;74.70;;;;;;4811824;29;20337;-77
2022/02/19 11:46:32;;;;;;;3.97;1.55;;;10.60;74.60;;;;;;4843264;29;20030;-78
2022/02/19 11:49:17;;;;;;;2.22;1.30;;;10.60;74.60;;;;;;4810978;29;20121;-78
2022/02/19 11:51:43;;;;;;;2.08;1.20;;;10.70;74.80;;;;;;4827254;29;20113;-78
2022/02/19 11:54:12;;;;;;;1.52;1.10;;;10.70;74.60;;;;;;4842727;29;20110;-78
2022/02/19 11:56:42;;;;;;;2.42;1.40;;;10.70;74.60;;;;;;4842957;29;20034;-77
2022/02/19 11:59:11;;;;;;;3.78;1.90;;;10.80;74.60;;;;;;4811646;29;20049;-79
2022/02/19 12:01:38;;;;;;;2.85;1.30;;;10.80;74.60;;;;;;4810894;29;20030;-77
2022/02/19 12:04:10;;;;;;;2.65;1.48;;;10.80;74.60;;;;;;4842932;29;20062;-77
2022/02/19 12:06:37;;;;;;;3.75;1.45;;;10.80;74.60;;;;;;4826223;29;20439;-76
2022/02/19 12:09:07;;;;;;;2.05;1.30;;;10.90;74.60;;;;;;4811024;29;20121;-76
2022/02/19 12:11:55;;;;;;;2.55;1.60;;;10.90;74.60;;;;;;4826486;29;20033;-78
2022/02/19 12:14:40;;;;;;;3.78;1.42;;;10.90;74.70;;;;;;4811074;29;20053;-77
2022/02/19 12:17:42;;;;;;;3.17;1.30;;;11.00;74.70;;;;;;4826375;29;20045;-77
2022/02/19 12:20:10;;;;;;;3.53;1.38;;;11.00;74.70;;;;;;4807996;29;20096;-77
2022/02/19 12:22:58;;;;;;;3.55;1.27;;;11.00;74.60;;;;;;4842344;29;20037;-80
2022/02/19 12:25:44;;;;;;;3.25;1.40;;;11.00;74.70;;;;;;4826199;29;20045;-78
2022/02/19 12:28:15;;;;;;;2.63;1.13;;;11.10;74.60;;;;;;4825526;29;20034;-78
2022/02/19 12:30:43;;;;;;;2.55;1.30;;;11.10;74.60;;;;;;4825808;29;20124;-78
2022/02/19 12:33:09;;;;;;;2.88;1.27;;;11.10;74.60;;;;;;4810922;29;20429;-78
2022/02/19 12:35:41;;;;;;;3.22;1.33;;;11.20;74.60;;;;;;4842885;29;20046;-78
2022/02/19 12:38:07;;;;;;;1.17;0.95;;;11.20;74.60;;;;;;4842463;29;20037;-80
2022/02/19 12:40:34;;;;;;;2.25;1.10;;;11.20;74.50;;;;;;4814057;29;20042;-80
2022/02/19 12:43:01;;;;;;;2.00;1.40;;;11.20;74.60;;;;;;4829125;29;20037;-78
2022/02/19 12:45:26;;;;;;;2.58;1.40;;;11.30;74.60;;;;;;4814269;29;20034;-80
2022/02/19 12:47:52;;;;;;;2.60;1.52;;;11.30;74.60;;;;;;4829567;29;20038;-76
2022/02/19 12:50:19;;;;;;;1.98;1.10;;;11.30;74.50;;;;;;4814083;29;20038;-77
2022/02/19 12:52:50;;;;;;;2.97;1.30;;;11.30;74.50;;;;;;4814179;29;20038;-79
2022/02/19 12:55:18;;;;;;;3.17;1.20;;;11.40;74.60;;;;;;4829853;29;20408;-78
2022/02/19 12:57:50;;;;;;;3.95;1.30;;;11.40;74.50;;;;;;4829665;29;20102;-76
2022/02/19 13:00:18;;;;;;;2.22;1.30;;;11.40;74.50;;;;;;4829242;29;20182;-77
2022/02/19 13:02:47;;;;;;;2.28;1.27;;;11.50;74.50;;;;;;4829934;29;20046;-77
2022/02/19 13:05:16;;;;;;;1.77;1.17;;;11.50;74.50;;;;;;4813935;29;20120;-80
2022/02/19 13:07:42;;;;;;;2.88;1.20;;;11.50;74.40;;;;;;4814077;29;20030;-77
2022/02/19 13:10:09;;;;;;;2.67;1.52;;;11.50;74.40;;;;;;4829176;29;20383;-77
2022/02/19 13:12:40;;;;;;;1.98;1.35;;;11.60;74.50;;;;;;4829099;29;20062;-77